LS Concorde — ZDHJ7 — position and weather

sailwx.info

Track history (hours):
 
Tides and Currents Weather Stations Pressure Air Temp Water Temp Dewpoint Dewpoint Depression Visibility Wind Speed Wind Dir Waves Ship Positions

LS Concorde

Last reported at 2014-Nov-23 13:16 UTC. Time now 2014-Nov-23 20:07 UTC.
Position N 49°28' E 000°32'.

Length 99 m; draft 5.3 m.

Type: Tanker. MMSI: 236329000.

Date/timePositionNaut miles runAvg speedWind from/ knotsBaromVisibWave heightAir tempDewpointWater temp
2014-Nov-23 13:16N 49°28' E 000°32'0 0.0
2014-Nov-23 12:33N 49°28' E 000°32'0 0.0
2014-Nov-23 11:27N 49°28' E 000°32'0 0.0
2014-Nov-23 10:14N 49°28' E 000°32'0 0.1
2014-Nov-23 08:33N 49°28' E 000°32'9 8.6
2014-Nov-23 07:33N 49°26' E 000°19'1312.8
2014-Nov-23 06:34N 49°28' E 000°00'7 7.4
2014-Nov-23 05:33N 49°30' W 000°11'7 7.1
2014-Nov-23 04:33N 49°37' W 000°12'6211.9
2014-Nov-22 23:23N 50°26' E 000°47'1211.7
2014-Nov-22 22:20N 50°38' E 000°46'911.1
2014-Nov-22 21:34N 50°43' E 000°57'1211.6
2014-Nov-22 20:32N 50°50' E 001°12'1313.2
2014-Nov-22 19:33N 51°00' E 001°25'1514.9
2014-Nov-22 18:33N 51°11' E 001°41'1413.7
2014-Nov-22 17:33N 51°21' E 001°56'1110.8
2014-Nov-22 16:34N 51°21' E 002°13'1211.8
2014-Nov-22 15:31N 51°23' E 002°33'1111.7
2014-Nov-22 14:32N 51°22' E 002°51'1311.6
2014-Nov-22 13:27N 51°23' E 003°11'1011.2
2014-Nov-22 12:34N 51°25' E 003°27'9 9.0
2014-Nov-22 11:33N 51°24' E 003°41'7 6.7
2014-Nov-22 10:33N 51°20' E 003°49'4 3.8
2014-Nov-22 09:33N 51°16' E 003°50'4 0.4
2014-Nov-21 23:31N 51°12' E 003°48'0 0.0
2014-Nov-21 05:12N 51°12' E 003°48'2 2.6
2014-Nov-21 04:34N 51°14' E 003°48'6 5.8
2014-Nov-21 03:34N 51°20' E 003°49'4 4.2
2014-Nov-21 02:33N 51°22' E 003°44'8 8.0
2014-Nov-21 01:33N 51°27' E 003°33'9 9.0
2014-Nov-21 00:33N 51°34' E 003°24'1110.7
2014-Nov-20 23:31N 51°43' E 003°15'6 6.2
2014-Nov-20 22:33N 51°49' E 003°16'7 7.4
2014-Nov-20 21:33N 51°56' E 003°19'5112.3
2014-Nov-20 17:27N 52°45' E 003°42'2311.6
2014-Nov-20 15:30N 53°01' E 004°07'2310.4
2014-Nov-20 13:21N 53°20' E 004°30'3912.2
2014-Nov-20 10:08N 53°57' E 004°49'30611.5
2014-Nov-19 07:32N 57°47' E 010°48'1413.2
2014-Nov-19 06:27N 57°37' E 011°08'1112.8
2014-Nov-19 05:33N 57°29' E 011°24'1512.2
2014-Nov-19 04:20N 57°16' E 011°34'3812.2
2014-Nov-19 01:11N 56°39' E 011°56'911.9
2014-Nov-19 00:25N 56°30' E 012°00'1012.2
2014-Nov-18 23:33N 56°20' E 012°04'1313.3
2014-Nov-18 22:33N 56°11' E 012°22'1312.6
2014-Nov-18 21:33N 56°03' E 012°39'1212.3
2014-Nov-18 20:33N 55°51' E 012°45'1212.1
2014-Nov-18 19:33N 55°40' E 012°55'1111.0
2014-Nov-18 18:34N 55°31' E 012°45'1111.3
2014-Nov-18 17:33N 55°20' E 012°41'1111.3
2014-Nov-18 16:33N 55°16' E 012°59'1212.4
2014-Nov-18 15:33N 55°15' E 013°21'6111.3
2014-Nov-18 10:12N 55°35' E 015°02'3312.3
2014-Nov-18 07:33N 55°51' E 015°52'1212.3
2014-Nov-18 06:34N 55°57' E 016°11'9511.7
2014-Nov-17 22:26N 56°53' E 018°31'1211.4
2014-Nov-17 21:22N 57°01' E 018°48'  
Track history (hours):
 
Tides and Currents Weather Stations Pressure Air Temp Water Temp Dewpoint Dewpoint Depression Visibility Wind Speed Wind Dir Waves Ship Positions

LS Concorde

Last reported at 2014-Nov-23 13:16 UTC. Time now 2014-Nov-23 20:07 UTC.
Position N 49°28' E 000°32'.

Length 99 m; draft 5.3 m.

Type: Tanker. MMSI: 236329000.

Date/timePositionNaut miles runAvg speedWind from/ knotsBaromVisibWave heightAir tempDewpointWater temp
2014-Nov-23 13:16N 49°28' E 000°32'0 0.0
2014-Nov-23 12:33N 49°28' E 000°32'0 0.0
2014-Nov-23 11:27N 49°28' E 000°32'0 0.0
2014-Nov-23 10:14N 49°28' E 000°32'0 0.1
2014-Nov-23 08:33N 49°28' E 000°32'9 8.6
2014-Nov-23 07:33N 49°26' E 000°19'1312.8
2014-Nov-23 06:34N 49°28' E 000°00'7 7.4
2014-Nov-23 05:33N 49°30' W 000°11'7 7.1
2014-Nov-23 04:33N 49°37' W 000°12'6211.9
2014-Nov-22 23:23N 50°26' E 000°47'1211.7
2014-Nov-22 22:20N 50°38' E 000°46'911.1
2014-Nov-22 21:34N 50°43' E 000°57'1211.6
2014-Nov-22 20:32N 50°50' E 001°12'1313.2
2014-Nov-22 19:33N 51°00' E 001°25'1514.9
2014-Nov-22 18:33N 51°11' E 001°41'1413.7
2014-Nov-22 17:33N 51°21' E 001°56'1110.8
2014-Nov-22 16:34N 51°21' E 002°13'1211.8
2014-Nov-22 15:31N 51°23' E 002°33'1111.7
2014-Nov-22 14:32N 51°22' E 002°51'1311.6
2014-Nov-22 13:27N 51°23' E 003°11'1011.2
2014-Nov-22 12:34N 51°25' E 003°27'9 9.0
2014-Nov-22 11:33N 51°24' E 003°41'7 6.7
2014-Nov-22 10:33N 51°20' E 003°49'4 3.8
2014-Nov-22 09:33N 51°16' E 003°50'4 0.4
2014-Nov-21 23:31N 51°12' E 003°48'0 0.0
2014-Nov-21 05:12N 51°12' E 003°48'2 2.6
2014-Nov-21 04:34N 51°14' E 003°48'6 5.8
2014-Nov-21 03:34N 51°20' E 003°49'4 4.2
2014-Nov-21 02:33N 51°22' E 003°44'8 8.0
2014-Nov-21 01:33N 51°27' E 003°33'9 9.0
2014-Nov-21 00:33N 51°34' E 003°24'1110.7
2014-Nov-20 23:31N 51°43' E 003°15'6 6.2
2014-Nov-20 22:33N 51°49' E 003°16'7 7.4
2014-Nov-20 21:33N 51°56' E 003°19'5112.3
2014-Nov-20 17:27N 52°45' E 003°42'2311.6
2014-Nov-20 15:30N 53°01' E 004°07'2310.4
2014-Nov-20 13:21N 53°20' E 004°30'3912.2
2014-Nov-20 10:08N 53°57' E 004°49'30611.5
2014-Nov-19 07:32N 57°47' E 010°48'1413.2
2014-Nov-19 06:27N 57°37' E 011°08'1112.8
2014-Nov-19 05:33N 57°29' E 011°24'1512.2
2014-Nov-19 04:20N 57°16' E 011°34'3812.2
2014-Nov-19 01:11N 56°39' E 011°56'911.9
2014-Nov-19 00:25N 56°30' E 012°00'1012.2
2014-Nov-18 23:33N 56°20' E 012°04'1313.3
2014-Nov-18 22:33N 56°11' E 012°22'1312.6
2014-Nov-18 21:33N 56°03' E 012°39'1212.3
2014-Nov-18 20:33N 55°51' E 012°45'1212.1
2014-Nov-18 19:33N 55°40' E 012°55'1111.0
2014-Nov-18 18:34N 55°31' E 012°45'1111.3
2014-Nov-18 17:33N 55°20' E 012°41'1111.3
2014-Nov-18 16:33N 55°16' E 012°59'1212.4
2014-Nov-18 15:33N 55°15' E 013°21'6111.3
2014-Nov-18 10:12N 55°35' E 015°02'3312.3
2014-Nov-18 07:33N 55°51' E 015°52'1212.3
2014-Nov-18 06:34N 55°57' E 016°11'9511.7
2014-Nov-17 22:26N 56°53' E 018°31'1211.4
2014-Nov-17 21:22N 57°01' E 018°48'  

Dump ship's entire track history